Terminal Aerodrome Forecast
Issued by NWS

Home | Current Version | Previous Version | Text Only | Print | Product List | Glossary On
Versions: 1 2 3 4 5 6 7 8 9 10 11 12 13
000
FTUS46 KMTR 011126
TAFSJC
TAF
KSJC 011126Z 0112/0212 30005KT P6SM FEW200
     FM012100 31009KT P6SM SCT200
     FM020500 26005KT P6SM SCT200
     FM020800 14010KT P6SM SCT010=

USA.gov is the U.S. government's official web portal to all federal, state and local government web resources and services.